createdAt,value
2018-09-03T00:01:59.415Z,76.42
2018-09-03T00:04:27.902Z,73.37
2018-09-03T00:06:56.399Z,76.70
2018-09-03T00:09:24.883Z,87.57
2018-09-03T00:11:53.377Z,79.55
2018-09-03T00:14:21.890Z,70.07
2018-09-03T00:16:50.400Z,60.80
2018-09-03T00:19:18.920Z,81.50
2018-09-03T00:21:47.407Z,71.00
2018-09-03T00:24:15.915Z,64.57
2018-09-03T00:26:44.431Z,78.30
2018-09-03T00:29:12.951Z,67.53
2018-09-03T00:31:46.954Z,65.63
2018-09-03T00:34:20.865Z,63.27
2018-09-03T00:36:54.630Z,69.27
2018-09-03T00:39:28.462Z,80.30
2018-09-03T00:42:02.306Z,66.77
2018-09-03T00:44:40.948Z,62.20
2018-09-03T00:47:10.841Z,75.53
2018-09-03T00:49:39.463Z,62.20
2018-09-03T00:52:08.035Z,65.03
2018-09-03T00:54:37.578Z,66.90
2018-09-03T00:57:06.159Z,59.33
2018-09-03T00:59:34.734Z,59.40
2018-09-03T01:02:04.088Z,60.58
2018-09-03T01:04:32.678Z,65.83
2018-09-03T01:07:01.215Z,64.30
2018-09-03T01:09:29.775Z,78.25
2018-09-03T01:11:58.319Z,53.20
2018-09-03T01:14:26.828Z,55.23
2018-09-03T01:16:55.355Z,58.97
2018-09-03T01:19:23.927Z,54.70
2018-09-03T01:21:52.458Z,62.60
2018-09-03T01:24:22.102Z,62.20
2018-09-03T01:26:50.625Z,64.17
2018-09-03T01:29:19.162Z,60.30
2018-09-03T01:31:47.692Z,60.90
2018-09-03T01:34:16.199Z,55.40
2018-09-03T01:36:44.703Z,61.13
2018-09-03T01:39:13.202Z,56.67
2018-09-03T01:41:41.700Z,69.72
2018-09-03T01:44:10.203Z,65.47
2018-09-03T01:46:38.696Z,54.73
2018-09-03T01:49:07.221Z,62.73
2018-09-03T01:51:35.722Z,56.08
2018-09-03T01:54:04.243Z,73.33
2018-09-03T01:56:32.727Z,57.77
2018-09-03T01:59:01.227Z,74.27
2018-09-03T02:01:29.722Z,57.13
2018-09-03T02:03:58.264Z,108.60
2018-09-03T02:06:26.743Z,67.37
2018-09-03T02:08:55.243Z,59.93
2018-09-03T02:11:23.752Z,68.03
2018-09-03T02:13:52.325Z,76.25
2018-09-03T02:16:20.815Z,74.43
2018-09-03T02:18:49.304Z,76.00
2018-09-03T02:21:17.846Z,50.03
2018-09-03T02:23:46.355Z,57.17
2018-09-03T02:26:14.842Z,69.05
2018-09-03T02:28:43.338Z,54.50
2018-09-03T02:31:11.891Z,57.73
2018-09-03T02:33:40.465Z,67.70
2018-09-03T02:36:09.006Z,74.77
2018-09-03T02:38:37.543Z,61.45
2018-09-03T02:41:06.273Z,56.60
2018-09-03T02:43:34.879Z,77.62
2018-09-03T02:46:03.429Z,71.20
2018-09-03T02:48:31.958Z,62.27
2018-09-03T02:51:00.506Z,51.10
2018-09-03T02:53:29.049Z,47.97
2018-09-03T02:55:57.597Z,37.58
2018-09-03T02:58:26.142Z,56.08
2018-09-03T03:00:54.678Z,57.47
2018-09-03T03:03:23.192Z,63.40
2018-09-03T03:05:51.739Z,66.25
2018-09-03T03:08:20.279Z,67.97
2018-09-03T03:10:48.804Z,59.77
2018-09-03T03:13:17.356Z,100.60
2018-09-03T03:15:45.887Z,136.80
2018-09-03T03:18:14.451Z,87.10
2018-09-03T03:20:42.982Z,73.78
2018-09-03T03:23:11.519Z,91.47
2018-09-03T03:25:40.073Z,118.62
2018-09-03T03:28:08.602Z,87.40
2018-09-03T03:30:37.231Z,111.17
2018-09-03T03:33:05.947Z,101.90
2018-09-03T03:35:34.511Z,95.50
2018-09-03T03:38:03.034Z,78.17
2018-09-03T03:40:31.599Z,64.35
2018-09-03T03:43:00.122Z,65.45
2018-09-03T03:45:28.645Z,63.73
2018-09-03T03:47:57.160Z,65.32
2018-09-03T03:50:25.699Z,57.13
2018-09-03T03:52:54.285Z,68.97
2018-09-03T03:55:22.903Z,57.63
2018-09-03T03:57:51.459Z,87.50
2018-09-03T04:00:19.990Z,80.32
2018-09-03T04:02:48.529Z,61.37
2018-09-03T04:05:17.115Z,106.27
2018-09-03T04:07:45.630Z,76.57
2018-09-03T04:10:14.155Z,69.22
2018-09-03T04:12:47.827Z,92.27
2018-09-03T04:15:16.367Z,92.50
2018-09-03T04:17:44.894Z,81.35
2018-09-03T04:20:13.443Z,126.37
2018-09-03T04:22:42.008Z,88.17
2018-09-03T04:25:10.556Z,84.00
2018-09-03T04:27:39.071Z,136.53
2018-09-03T04:30:07.637Z,99.87
2018-09-03T04:32:36.146Z,82.12
2018-09-03T04:35:04.756Z,83.17
2018-09-03T04:37:33.259Z,118.37
2018-09-03T04:40:01.771Z,87.95
2018-09-03T04:42:30.305Z,87.30
2018-09-03T04:44:58.810Z,69.70
2018-09-03T04:47:27.322Z,64.42
2018-09-03T04:49:55.843Z,61.20
2018-09-03T04:52:24.376Z,77.87
2018-09-03T04:54:52.867Z,71.80
2018-09-03T04:57:21.399Z,96.35
2018-09-03T04:59:49.904Z,81.20
2018-09-03T05:02:18.414Z,62.85
2018-09-03T05:04:46.899Z,71.12
2018-09-03T05:07:15.392Z,69.10
2018-09-03T05:09:43.879Z,92.53
2018-09-03T05:12:12.414Z,93.25
2018-09-03T05:14:40.946Z,88.78
2018-09-03T05:17:09.458Z,71.80
2018-09-03T05:19:37.976Z,60.50
2018-09-03T05:22:06.539Z,82.45
2018-09-03T05:24:35.043Z,90.30
2018-09-03T05:27:03.619Z,65.67
2018-09-03T05:29:32.166Z,69.77
2018-09-03T05:32:00.724Z,73.25
2018-09-03T05:34:29.238Z,71.37
2018-09-03T05:36:57.775Z,60.58
2018-09-03T05:39:26.267Z,73.10
2018-09-03T05:41:54.794Z,63.20
2018-09-03T05:44:23.331Z,66.10
2018-09-03T05:46:51.877Z,51.40
2018-09-03T05:49:20.407Z,53.13
2018-09-03T05:51:48.935Z,68.12
2018-09-03T05:54:17.452Z,72.82
2018-09-03T05:56:45.990Z,68.75
2018-09-03T05:59:14.596Z,64.20
2018-09-03T06:01:43.103Z,67.90
2018-09-03T06:04:11.680Z,59.70
2018-09-03T06:06:40.212Z,56.28
2018-09-03T06:09:10.700Z,60.90
2018-09-03T06:11:39.240Z,53.38
2018-09-03T06:14:07.862Z,51.25
2018-09-03T06:16:36.423Z,43.17
2018-09-03T06:19:04.986Z,43.08
2018-09-03T06:21:33.570Z,47.65
2018-09-03T06:24:02.155Z,45.38
2018-09-03T06:26:30.688Z,42.73
2018-09-03T06:28:59.190Z,43.10
2018-09-03T06:31:27.756Z,40.58
2018-09-03T06:33:56.695Z,41.80
2018-09-03T06:36:25.231Z,39.85
2018-09-03T06:38:53.843Z,41.75
2018-09-03T06:41:22.359Z,41.98
2018-09-03T06:43:50.910Z,37.88
2018-09-03T06:46:19.707Z,38.67
2018-09-03T06:48:48.635Z,38.35
2018-09-03T06:51:17.299Z,36.98
2018-09-03T06:53:46.176Z,38.38
2018-09-03T06:56:14.712Z,34.53
2018-09-03T06:58:43.276Z,35.17
2018-09-03T07:01:12.411Z,39.60
2018-09-03T07:03:41.199Z,40.33
2018-09-03T07:06:09.754Z,43.50
2018-09-03T07:08:39.103Z,39.80
2018-09-03T07:11:08.122Z,45.48
2018-09-03T07:13:36.668Z,44.85
2018-09-03T07:16:05.254Z,41.15
2018-09-03T07:18:33.792Z,40.08
2018-09-03T07:21:02.344Z,50.88
2018-09-03T07:23:30.918Z,45.78
2018-09-03T07:25:59.475Z,44.53
2018-09-03T07:28:28.025Z,41.88
2018-09-03T07:30:56.731Z,44.98
2018-09-03T07:33:25.274Z,42.93
2018-09-03T07:35:53.823Z,45.92
2018-09-03T07:38:22.407Z,47.33
2018-09-03T07:40:50.950Z,44.70
2018-09-03T07:43:19.528Z,42.38
2018-09-03T07:45:48.067Z,44.80
2018-09-03T07:48:16.645Z,38.60
2018-09-03T07:50:45.187Z,37.17
2018-09-03T07:53:13.734Z,42.67
2018-09-03T07:55:42.271Z,40.20
2018-09-03T07:58:10.811Z,33.40
2018-09-03T08:00:39.337Z,42.53
2018-09-03T08:03:07.862Z,36.17
2018-09-03T08:05:36.418Z,37.48
2018-09-03T08:08:05.102Z,36.90
2018-09-03T08:10:33.702Z,38.17
2018-09-03T08:13:02.357Z,34.63
2018-09-03T08:15:30.793Z,37.08
2018-09-03T08:17:59.358Z,35.03
2018-09-03T08:20:27.882Z,33.33
2018-09-03T08:22:56.432Z,34.23
2018-09-03T08:25:24.966Z,36.50
2018-09-03T08:27:53.495Z,34.43
2018-09-03T08:30:22.727Z,31.82
2018-09-03T08:32:51.369Z,30.43
2018-09-03T08:35:19.978Z,30.72
2018-09-03T08:37:48.502Z,26.20
2018-09-03T08:40:17.034Z,29.48
2018-09-03T08:42:45.550Z,28.23
2018-09-03T08:45:14.142Z,29.23
2018-09-03T08:47:42.720Z,29.23
2018-09-03T08:50:11.353Z,29.55
2018-09-03T08:52:39.847Z,28.02
2018-09-03T08:55:08.413Z,32.42
2018-09-03T08:57:37.007Z,28.55
2018-09-03T09:00:05.751Z,29.20
2018-09-03T09:02:34.274Z,29.07
2018-09-03T09:05:02.810Z,35.05
2018-09-03T09:07:31.367Z,35.43
2018-09-03T09:09:59.975Z,32.95
2018-09-03T09:12:28.495Z,29.12
2018-09-03T09:14:57.018Z,30.55
2018-09-03T09:17:25.527Z,31.48
2018-09-03T09:19:54.055Z,31.68
2018-09-03T09:22:22.823Z,34.33
2018-09-03T09:24:51.360Z,32.63
2018-09-03T09:27:19.894Z,30.92
2018-09-03T09:29:48.442Z,31.57
2018-09-03T09:32:16.958Z,30.08
2018-09-03T09:34:45.558Z,27.17
2018-09-03T09:37:14.068Z,30.65
2018-09-03T09:39:42.652Z,28.27
2018-09-03T09:42:11.166Z,26.20
2018-09-03T09:44:39.686Z,25.90
2018-09-03T09:47:08.205Z,26.17
2018-09-03T09:49:36.784Z,27.73
2018-09-03T09:52:05.382Z,24.30
2018-09-03T09:54:33.923Z,28.07
2018-09-03T09:57:02.445Z,26.05
2018-09-03T09:59:31.007Z,28.47
2018-09-03T10:01:59.559Z,25.25
2018-09-03T10:04:28.179Z,25.30
2018-09-03T10:06:56.694Z,24.55
2018-09-03T10:09:25.286Z,25.95
2018-09-03T10:11:53.804Z,23.98
2018-09-03T10:14:22.382Z,24.82
2018-09-03T10:16:50.900Z,26.77
2018-09-03T10:19:19.446Z,22.60
2018-09-03T10:21:47.970Z,19.95
2018-09-03T10:24:16.493Z,21.93
2018-09-03T10:26:45.027Z,21.35
2018-09-03T10:29:13.641Z,22.55
2018-09-03T10:31:42.211Z,26.70
2018-09-03T10:34:10.718Z,24.87
2018-09-03T10:36:39.236Z,25.52
2018-09-03T10:39:08.291Z,20.88
2018-09-03T10:41:36.828Z,22.15
2018-09-03T10:44:05.388Z,20.92
2018-09-03T10:46:33.921Z,21.35
2018-09-03T10:49:02.471Z,20.35
2018-09-03T10:51:31.043Z,19.05
2018-09-03T10:53:59.568Z,17.75
2018-09-03T10:56:28.113Z,21.35
2018-09-03T10:58:56.610Z,17.45
2018-09-03T11:01:25.198Z,18.32
2018-09-03T11:03:54.579Z,19.82
2018-09-03T11:06:23.131Z,19.40
2018-09-03T11:08:51.633Z,18.70
2018-09-03T11:11:20.246Z,15.93
2018-09-03T11:13:48.772Z,19.30
2018-09-03T11:16:17.345Z,20.23
2018-09-03T11:18:45.939Z,18.67
2018-09-03T11:21:14.588Z,17.48
2018-09-03T11:23:43.003Z,17.42
2018-09-03T11:26:11.515Z,18.77
2018-09-03T11:28:40.051Z,15.65
2018-09-03T11:31:08.630Z,15.35
2018-09-03T11:33:37.194Z,17.25
2018-09-03T11:36:05.758Z,15.38
2018-09-03T11:38:34.283Z,15.20
2018-09-03T11:41:02.847Z,17.17
2018-09-03T11:43:31.394Z,14.38
2018-09-03T11:45:59.926Z,16.10
2018-09-03T11:48:28.468Z,25.20
2018-09-03T11:50:57.020Z,15.25
2018-09-03T11:53:25.529Z,14.07
2018-09-03T11:55:54.093Z,14.13
2018-09-03T11:58:22.669Z,15.90
2018-09-03T12:00:55.139Z,16.37
2018-09-03T12:03:23.683Z,16.17
2018-09-03T12:05:52.213Z,18.12
2018-09-03T12:08:20.714Z,16.07
2018-09-03T12:10:49.320Z,14.93
2018-09-03T12:13:17.854Z,12.40
2018-09-03T12:15:53.490Z,13.90
2018-09-03T12:18:22.651Z,13.28
2018-09-03T12:21:03.709Z,10.13
2018-09-03T12:23:32.416Z,11.95
2018-09-03T12:26:01.422Z,10.88
2018-09-03T12:28:30.056Z,11.08
2018-09-03T12:30:58.686Z,10.78
2018-09-03T12:33:27.362Z,11.10
2018-09-03T12:35:55.914Z,12.23
2018-09-03T12:38:24.535Z,11.03
2018-09-03T12:40:53.178Z,10.78
2018-09-03T12:43:22.361Z,8.95
2018-09-03T12:45:56.371Z,9.23
2018-09-03T12:48:24.923Z,9.90
2018-09-03T12:50:53.442Z,8.68
2018-09-03T12:53:22.052Z,10.80
2018-09-03T12:55:50.611Z,12.37
2018-09-03T12:58:19.217Z,13.10
2018-09-03T13:00:47.830Z,10.80
2018-09-03T13:03:16.494Z,10.68
2018-09-03T13:05:45.065Z,12.07
2018-09-03T13:08:13.661Z,10.20
2018-09-03T13:10:42.301Z,10.72
2018-09-03T13:13:10.928Z,10.28
2018-09-03T13:15:39.587Z,11.93
2018-09-03T13:18:08.219Z,10.48
2018-09-03T13:20:36.865Z,11.65
2018-09-03T13:23:05.565Z,10.65
2018-09-03T13:25:34.191Z,12.60
2018-09-03T13:28:02.806Z,11.08
2018-09-03T13:30:31.411Z,11.35
2018-09-03T13:33:00.035Z,10.90
2018-09-03T13:35:28.609Z,10.38
2018-09-03T13:37:57.235Z,9.90
2018-09-03T13:40:25.860Z,8.78
2018-09-03T13:42:54.603Z,8.38
2018-09-03T13:45:23.236Z,10.88
2018-09-03T13:47:51.927Z,8.80
2018-09-03T13:50:20.544Z,9.85
2018-09-03T13:52:49.155Z,11.50
2018-09-03T13:55:17.796Z,10.82
2018-09-03T13:57:46.416Z,12.18
2018-09-03T14:00:15.063Z,10.20
2018-09-03T14:02:43.761Z,9.78
2018-09-03T14:05:12.379Z,9.18
2018-09-03T14:07:41.044Z,9.05
2018-09-03T14:10:09.779Z,9.20
2018-09-03T14:12:38.463Z,10.18
2018-09-03T14:15:07.188Z,8.90
2018-09-03T14:17:35.867Z,9.95
2018-09-03T14:20:04.653Z,8.48
2018-09-03T14:22:33.364Z,10.18
2018-09-03T14:25:02.024Z,11.03
2018-09-03T14:27:30.684Z,10.35
2018-09-03T14:29:59.314Z,11.22
2018-09-03T14:32:27.945Z,10.88
2018-09-03T14:34:56.608Z,11.85
2018-09-03T14:37:25.285Z,11.40
2018-09-03T14:39:53.882Z,9.68
2018-09-03T14:42:22.532Z,11.10
2018-09-03T14:44:51.196Z,10.80
2018-09-03T14:47:19.888Z,10.82
2018-09-03T14:49:48.561Z,10.60
2018-09-03T14:52:17.152Z,10.32
2018-09-03T14:54:45.793Z,10.43
2018-09-03T14:57:14.468Z,10.90
2018-09-03T14:59:43.140Z,9.90
2018-09-03T15:02:11.916Z,10.48
2018-09-03T15:04:40.565Z,8.95
2018-09-03T15:07:09.139Z,9.78
2018-09-03T15:09:37.783Z,11.75
2018-09-03T15:12:06.532Z,10.50
2018-09-03T15:14:35.149Z,10.60
2018-09-03T15:17:03.740Z,9.88
2018-09-03T15:19:32.367Z,11.25
2018-09-03T15:22:01.020Z,9.75
2018-09-03T15:24:29.660Z,10.95
2018-09-03T15:26:58.283Z,10.72
2018-09-03T15:29:26.955Z,10.93
2018-09-03T15:31:55.639Z,10.60
2018-09-03T15:34:24.251Z,9.38
2018-09-03T15:36:52.947Z,8.80
2018-09-03T15:39:21.687Z,10.72
2018-09-03T15:41:50.307Z,12.07
2018-09-03T15:44:18.942Z,11.05
2018-09-03T15:46:47.575Z,14.50
2018-09-03T15:49:16.609Z,9.25
2018-09-03T15:51:45.248Z,13.70
2018-09-03T15:54:13.936Z,10.70
2018-09-03T15:56:42.480Z,10.88
2018-09-03T15:59:11.148Z,12.07
2018-09-03T16:01:39.755Z,13.10
2018-09-03T16:04:08.374Z,11.03
2018-09-03T16:06:37.023Z,11.45
2018-09-03T16:09:08.999Z,10.95
2018-09-03T16:11:37.999Z,10.18
2018-09-03T16:14:07.347Z,14.07
2018-09-03T16:16:36.066Z,11.73
2018-09-03T16:19:04.859Z,9.58
2018-09-03T16:21:33.542Z,10.88
2018-09-03T16:24:02.249Z,12.00
2018-09-03T16:26:30.910Z,10.93
2018-09-03T16:28:59.521Z,12.23
2018-09-03T16:31:28.140Z,12.78
2018-09-03T16:33:56.795Z,12.47
2018-09-03T16:36:25.446Z,13.95
2018-09-03T16:38:54.410Z,12.40
2018-09-03T16:41:23.032Z,12.60
2018-09-03T16:43:51.700Z,12.93
2018-09-03T16:46:20.327Z,11.73
2018-09-03T16:48:49.046Z,13.62
2018-09-03T16:51:17.668Z,15.08
2018-09-03T16:53:46.278Z,12.03
2018-09-03T16:56:14.943Z,13.38
2018-09-03T16:58:43.539Z,14.15
2018-09-03T17:01:12.264Z,13.75
2018-09-03T17:03:40.815Z,15.93
2018-09-03T17:06:09.446Z,14.25
2018-09-03T17:08:38.085Z,22.35
2018-09-03T17:11:06.791Z,18.60
2018-09-03T17:13:35.577Z,18.37
2018-09-03T17:16:04.233Z,18.17
2018-09-03T17:18:32.833Z,23.77
2018-09-03T17:21:01.461Z,20.62
2018-09-03T17:23:30.085Z,17.87
2018-09-03T17:25:58.718Z,20.75
2018-09-03T17:28:27.337Z,20.17
2018-09-03T17:30:55.961Z,20.30
2018-09-03T17:33:24.532Z,20.85
2018-09-03T17:35:53.128Z,20.95
2018-09-03T17:38:21.711Z,20.37
2018-09-03T17:40:50.422Z,19.87
2018-09-03T17:43:19.018Z,21.23
2018-09-03T17:45:47.677Z,20.37
2018-09-03T17:48:16.356Z,22.27
2018-09-03T17:50:45.044Z,21.48
2018-09-03T17:53:13.712Z,27.42
2018-09-03T17:55:42.323Z,27.95
2018-09-03T17:58:10.953Z,28.32
2018-09-03T18:00:39.616Z,24.02
2018-09-03T18:03:08.312Z,31.35
2018-09-03T18:05:37.634Z,27.67
2018-09-03T18:08:06.280Z,27.40
2018-09-03T18:10:34.908Z,26.73
2018-09-03T18:13:03.640Z,30.85
2018-09-03T18:15:32.655Z,27.32
2018-09-03T18:18:01.331Z,24.87
2018-09-03T18:20:29.989Z,25.23
2018-09-03T18:22:58.707Z,32.13
2018-09-03T18:25:27.305Z,29.67
2018-09-03T18:27:55.949Z,33.00
2018-09-03T18:30:24.612Z,34.23
2018-09-03T18:32:53.329Z,31.77
2018-09-03T18:35:21.965Z,31.07
2018-09-03T18:37:50.617Z,31.15
2018-09-03T18:40:19.270Z,34.30
2018-09-03T18:42:47.961Z,29.82
2018-09-03T18:45:16.577Z,31.40
2018-09-03T18:47:45.251Z,38.15
2018-09-03T18:50:14.436Z,30.80
2018-09-03T18:52:43.079Z,29.67
2018-09-03T18:55:11.791Z,31.25
2018-09-03T18:57:40.429Z,30.57
2018-09-03T19:00:09.204Z,34.80
2018-09-03T19:02:37.809Z,31.05
2018-09-03T19:05:06.966Z,33.08
2018-09-03T19:07:35.644Z,33.53
2018-09-03T19:10:04.349Z,35.25
2018-09-03T19:12:33.015Z,34.40
2018-09-03T19:15:01.667Z,35.20
2018-09-03T19:17:30.490Z,34.92
2018-09-03T19:19:59.211Z,28.85
2018-09-03T19:22:27.859Z,28.57
2018-09-03T19:24:58.680Z,33.35
2018-09-03T19:27:28.262Z,30.55
2018-09-03T19:29:57.042Z,30.30
2018-09-03T19:32:25.762Z,32.63
2018-09-03T19:34:54.416Z,28.42
2018-09-03T19:37:23.123Z,31.35
2018-09-03T19:39:51.820Z,30.23
2018-09-03T19:42:20.447Z,30.32
2018-09-03T19:44:49.101Z,23.95
2018-09-03T19:47:17.812Z,32.90
2018-09-03T19:49:46.476Z,31.87
2018-09-03T19:52:15.111Z,26.57
2018-09-03T19:54:43.768Z,30.82
2018-09-03T19:57:12.352Z,32.88
2018-09-03T19:59:41.113Z,29.23
2018-09-03T20:02:09.746Z,34.25
2018-09-03T20:04:38.374Z,44.10
2018-09-03T20:07:07.195Z,30.30
2018-09-03T20:09:35.774Z,32.40
2018-09-03T20:12:04.579Z,33.10
2018-09-03T20:14:33.168Z,32.67
2018-09-03T20:17:01.729Z,34.35
2018-09-03T20:19:30.319Z,31.52
2018-09-03T20:21:58.851Z,32.30
2018-09-03T20:24:27.555Z,38.28
2018-09-03T20:26:56.063Z,33.75
2018-09-03T20:29:24.618Z,34.50
2018-09-03T20:31:53.139Z,30.52
2018-09-03T20:34:21.669Z,32.85
2018-09-03T20:36:50.198Z,32.10
2018-09-03T20:39:18.715Z,35.85
2018-09-03T20:41:47.203Z,36.98
2018-09-03T20:44:15.751Z,36.48
2018-09-03T20:46:44.256Z,36.70
2018-09-03T20:49:12.764Z,39.33
2018-09-03T20:51:41.323Z,41.28
2018-09-03T20:54:09.855Z,45.65
2018-09-03T20:56:38.376Z,46.13
2018-09-03T20:59:06.866Z,38.35
2018-09-03T21:01:35.482Z,43.05
2018-09-03T21:04:04.074Z,35.05
2018-09-03T21:06:32.597Z,40.03
2018-09-03T21:09:01.090Z,61.05
2018-09-03T21:11:29.632Z,42.48
2018-09-03T21:13:58.196Z,47.88
2018-09-03T21:16:26.703Z,44.15
2018-09-03T21:18:55.208Z,47.80
2018-09-03T21:21:23.726Z,48.80
2018-09-03T21:23:52.244Z,39.60
2018-09-03T21:26:20.779Z,39.75
2018-09-03T21:28:49.288Z,58.10
2018-09-03T21:31:17.852Z,47.85
2018-09-03T21:33:46.350Z,46.83
2018-09-03T21:36:15.000Z,45.50
2018-09-03T21:38:43.508Z,46.68
2018-09-03T21:41:12.152Z,38.78
2018-09-03T21:43:40.750Z,63.80
2018-09-03T21:46:09.638Z,45.35
2018-09-03T21:48:38.526Z,64.72
2018-09-03T21:51:07.130Z,48.83
2018-09-03T21:53:35.647Z,56.77
2018-09-03T21:56:04.158Z,44.83
2018-09-03T21:58:32.687Z,73.67
2018-09-03T22:01:01.231Z,66.80
2018-09-03T22:03:29.739Z,66.80
2018-09-03T22:05:58.320Z,55.48
2018-09-03T22:08:26.845Z,60.45
2018-09-03T22:10:55.371Z,61.80
2018-09-03T22:13:23.903Z,56.70
2018-09-03T22:15:52.412Z,53.85
2018-09-03T22:18:20.986Z,47.83
2018-09-03T22:20:49.575Z,54.25
2018-09-03T22:23:18.083Z,58.35
2018-09-03T22:25:46.630Z,56.85
2018-09-03T22:28:15.159Z,60.83
2018-09-03T22:30:43.714Z,48.17
2018-09-03T22:33:12.276Z,89.87
2018-09-03T22:35:40.787Z,145.77
2018-09-03T22:38:09.339Z,46.02
2018-09-03T22:40:37.898Z,54.73
2018-09-03T22:43:06.448Z,58.08
2018-09-03T22:45:34.961Z,74.17
2018-09-03T22:48:03.523Z,62.45
2018-09-03T22:50:32.580Z,78.65
2018-09-03T22:53:01.118Z,67.42
2018-09-03T22:55:29.758Z,49.63
2018-09-03T22:57:58.279Z,56.73
2018-09-03T23:00:26.760Z,64.12
2018-09-03T23:02:55.288Z,46.37
2018-09-03T23:05:23.803Z,52.30
2018-09-03T23:07:52.327Z,51.42
2018-09-03T23:10:21.052Z,64.85
2018-09-03T23:12:49.563Z,67.10
2018-09-03T23:15:18.486Z,73.80
2018-09-03T23:17:47.001Z,59.85
2018-09-03T23:20:15.512Z,66.62
2018-09-03T23:22:44.049Z,55.70
2018-09-03T23:25:12.612Z,68.65
2018-09-03T23:27:41.168Z,91.92
2018-09-03T23:30:09.792Z,65.20
2018-09-03T23:32:38.335Z,57.53
2018-09-03T23:35:06.895Z,71.67
2018-09-03T23:37:35.460Z,88.70
2018-09-03T23:40:04.067Z,56.45
2018-09-03T23:42:32.639Z,81.72
2018-09-03T23:45:01.181Z,66.95
2018-09-03T23:47:29.762Z,72.42
2018-09-03T23:49:58.300Z,84.32
2018-09-03T23:52:26.864Z,64.55
2018-09-03T23:54:55.400Z,71.35
2018-09-03T23:57:23.953Z,56.73
2018-09-03T23:59:52.491Z,63.40
